Time;durP1;ratioP1;P1;durP2;ratioP2;P2;SDS_P1;SDS_P2;PMS_P1;PMS_P2;Temp;Humidity;BMP_temperature;BMP_pressure;BME280_temperature;BME280_humidity;BME280_pressure;Samples;Min_cycle;Max_cycle;Signal;HPM_P1;HPM_P2
2021/09/28 00:00:11;;;;;;;20.15;12.77;;;;;;;16.17;100.00;93341.63;5071063;28;20070;-78
2021/09/28 00:02:38;;;;;;;19.50;12.10;;;;;;;16.11;100.00;93347.78;5071427;28;20044;-78
2021/09/28 00:05:08;;;;;;;17.77;12.90;;;;;;;16.00;100.00;93350.25;5071306;28;20049;-78
2021/09/28 00:07:34;;;;;;;22.30;14.15;;;;;;;15.90;100.00;93344.91;5071375;28;20053;-78
2021/09/28 00:10:02;;;;;;;21.65;15.02;;;;;;;15.86;100.00;93343.78;5071207;28;20478;-78
2021/09/28 00:12:29;;;;;;;20.02;14.02;;;;;;;15.66;100.00;93324.38;5070999;28;20049;-78
2021/09/28 00:14:56;;;;;;;16.73;12.95;;;;;;;15.74;100.00;93328.38;5071115;28;20056;-78
2021/09/28 00:17:23;;;;;;;21.13;13.73;;;;;;;15.77;100.00;93328.69;5070763;28;20296;-78
2021/09/28 00:19:50;;;;;;;20.08;13.10;;;;;;;15.93;100.00;93341.88;5073504;28;20048;-78
2021/09/28 00:22:18;;;;;;;19.35;12.63;;;;;;;15.94;100.00;93332.28;5073445;28;20052;-78
2021/09/28 00:24:45;;;;;;;21.02;12.43;;;;;;;16.02;100.00;93335.22;5070605;28;20090;-78
2021/09/28 00:27:11;;;;;;;19.90;12.57;;;;;;;16.06;100.00;93332.19;5070525;28;20090;-78
2021/09/28 00:29:38;;;;;;;16.90;12.02;;;;;;;15.97;100.00;93314.44;5070849;28;20053;-78
2021/09/28 00:32:07;;;;;;;15.73;10.48;;;;;;;16.05;100.00;93326.19;5071028;28;20044;-78
2021/09/28 00:34:33;;;;;;;17.95;12.15;;;;;;;16.06;100.00;93335.53;5070656;28;20143;-78
2021/09/28 00:37:00;;;;;;;16.70;12.15;;;;;;;15.98;100.00;93323.00;5070508;28;20130;-78
2021/09/28 00:39:28;;;;;;;17.35;12.07;;;;;;;16.02;99.79;93332.63;5070971;28;20045;-78
2021/09/28 00:41:55;;;;;;;15.10;11.05;;;;;;;16.02;98.92;93326.69;5070677;28;20139;-77
2021/09/28 00:44:33;;;;;;;16.75;11.52;;;;;;;15.98;98.92;93323.00;5070145;28;20098;-78
2021/09/28 00:47:00;;;;;;;20.02;11.77;;;;;;;16.03;98.98;93323.06;5070580;28;20102;-77
2021/09/28 00:49:27;;;;;;;16.83;10.57;;;;;;;16.00;99.16;93326.13;5070438;28;20101;-78
2021/09/28 00:51:54;;;;;;;16.15;10.95;;;;;;;15.98;98.53;93328.19;5070131;28;20116;-78
2021/09/28 00:54:21;;;;;;;13.20;10.10;;;;;;;15.97;98.67;93322.22;5070247;28;20048;-78
2021/09/28 00:56:50;;;;;;;14.95;9.95;;;;;;;15.97;99.62;93327.41;5070108;28;20051;-78
2021/09/28 00:59:17;;;;;;;12.23;9.23;;;;;;;15.94;99.42;93320.13;5083093;28;20153;-78
2021/09/28 01:01:45;;;;;;;14.80;10.60;;;;;;;15.94;99.05;93327.09;5090369;28;20063;-79
2021/09/28 01:04:16;;;;;;;14.20;10.48;;;;;;;15.93;99.29;93322.94;5090482;28;20055;-79
2021/09/28 01:06:43;;;;;;;13.75;9.65;;;;;;;15.92;99.63;93316.16;5090359;28;20059;-78
2021/09/28 01:09:11;;;;;;;14.15;10.05;;;;;;;15.87;100.00;93309.09;5090027;28;20055;-79
2021/09/28 01:11:39;;;;;;;17.95;10.63;;;;;;;15.67;100.00;93281.13;5090270;28;20458;-79
2021/09/28 01:14:07;;;;;;;15.40;11.38;;;;;;;15.84;100.00;93302.59;5089952;28;20481;-79
2021/09/28 01:16:34;;;;;;;14.60;11.07;;;;;;;15.75;100.00;93291.88;5089969;28;20051;-79
2021/09/28 01:19:03;;;;;;;13.95;10.30;;;;;;;15.81;100.00;93300.50;5089908;28;20548;-78
2021/09/28 01:21:31;;;;;;;18.25;11.85;;;;;;;15.86;99.88;93310.13;5079149;28;20131;-78
2021/09/28 01:23:58;;;;;;;14.82;10.88;;;;;;;15.88;99.83;93305.50;5069522;28;20052;-78
2021/09/28 01:26:25;;;;;;;17.50;10.85;;;;;;;15.86;99.94;93305.75;5069424;28;20048;-78
2021/09/28 01:28:52;;;;;;;16.92;11.88;;;;;;;15.83;99.79;93311.38;5069746;28;20455;-79
2021/09/28 01:31:19;;;;;;;16.60;11.73;;;;;;;15.81;100.00;93310.06;5069463;28;20048;-78
2021/09/28 01:33:47;;;;;;;19.10;11.85;;;;;;;15.72;100.00;93310.47;5069102;28;20497;-77
2021/09/28 01:36:14;;;;;;;19.45;13.45;;;;;;;15.68;100.00;93308.59;5069628;28;20444;-77
2021/09/28 01:38:43;;;;;;;18.77;12.48;;;;;;;15.58;100.00;93304.06;5069592;28;20052;-78
2021/09/28 01:41:10;;;;;;;16.13;11.32;;;;;;;15.46;100.00;93299.00;5069802;28;20464;-79
2021/09/28 01:43:37;;;;;;;17.55;12.52;;;;;;;15.48;100.00;93310.69;5069448;28;20048;-79
2021/09/28 01:46:05;;;;;;;21.80;12.70;;;;;;;15.47;100.00;93316.09;5069313;28;20098;-79
2021/09/28 01:48:38;;;;;;;18.38;12.60;;;;;;;15.39;100.00;93301.75;5069252;28;20049;-79
2021/09/28 01:51:04;;;;;;;19.23;12.63;;;;;;;15.34;100.00;93312.81;5069114;28;20048;-78
2021/09/28 01:53:31;;;;;;;22.85;12.48;;;;;;;15.38;100.00;93323.47;5069742;28;20448;-77
2021/09/28 01:56:00;;;;;;;19.50;12.10;;;;;;;15.34;100.00;93318.00;5069220;28;20056;-77
2021/09/28 01:58:26;;;;;;;16.35;13.10;;;;;;;15.34;100.00;93330.94;5069313;28;20675;-77
2021/09/28 02:00:53;;;;;;;19.83;12.48;;;;;;;15.34;100.00;93318.00;5069406;28;20079;-77
2021/09/28 02:03:20;;;;;;;18.15;11.95;;;;;;;15.40;100.00;93321.44;5069471;28;20045;-77
2021/09/28 02:05:47;;;;;;;17.75;11.98;;;;;;;15.37;100.00;93321.91;5069070;28;20052;-77
2021/09/28 02:08:14;;;;;;;18.88;12.68;;;;;;;15.38;100.00;93323.47;5068827;28;20101;-78
2021/09/28 02:10:40;;;;;;;16.05;11.95;;;;;;;15.38;100.00;93307.94;5069265;28;20053;-77
2021/09/28 02:13:09;;;;;;;16.92;11.98;;;;;;;15.46;100.00;93328.25;5069228;28;20102;-77
2021/09/28 02:15:35;;;;;;;19.33;12.35;;;;;;;15.49;100.00;93332.16;5069152;28;20098;-77
2021/09/28 02:18:02;;;;;;;23.70;13.20;;;;;;;15.51;100.00;93335.31;5068783;28;20052;-77
2021/09/28 02:20:29;;;;;;;22.65;12.90;;;;;;;15.54;100.00;93313.31;5071321;28;20041;-77
2021/09/28 02:22:56;;;;;;;17.35;11.63;;;;;;;15.54;100.00;93316.72;5089318;28;20048;-77
2021/09/28 02:25:23;;;;;;;19.70;11.57;;;;;;;15.55;100.00;93314.91;5089088;28;20055;-77
2021/09/28 02:27:50;;;;;;;20.35;12.70;;;;;;;15.51;100.00;93312.03;5088987;28;20040;-77
2021/09/28 02:30:19;;;;;;;16.98;11.68;;;;;;;15.56;100.00;93311.28;5089144;28;20067;-78
2021/09/28 02:32:46;;;;;;;16.80;12.18;;;;;;;15.46;100.00;93297.19;5089461;28;20059;-78
2021/09/28 02:35:13;;;;;;;18.73;12.13;;;;;;;15.57;100.00;93310.28;5088935;28;20044;-78
2021/09/28 02:37:39;;;;;;;20.35;13.27;;;;;;;15.56;100.00;93309.47;5079259;28;20048;-77
2021/09/28 02:40:08;;;;;;;18.88;12.43;;;;;;;15.52;100.00;93311.00;5089103;28;20087;-77
2021/09/28 02:42:36;;;;;;;18.77;13.02;;;;;;;15.46;100.00;93317.88;5089162;28;20048;-78
2021/09/28 02:45:03;;;;;;;18.65;11.63;;;;;;;15.46;100.00;93323.06;5088967;28;20110;-79
2021/09/28 02:47:32;;;;;;;19.45;12.43;;;;;;;15.39;100.00;93325.03;5091717;28;20052;-79
2021/09/28 02:49:58;;;;;;;18.92;12.70;;;;;;;15.35;100.00;93327.31;5092587;28;20056;-79
2021/09/28 02:52:26;;;;;;;17.88;12.52;;;;;;;15.31;100.00;93328.81;5092564;28;20052;-79
2021/09/28 02:54:52;;;;;;;19.02;13.73;;;;;;;15.14;100.00;93317.69;5092797;28;20051;-80
2021/09/28 02:57:19;;;;;;;18.92;13.75;;;;;;;15.15;100.00;93322.63;5092651;28;20480;-80
2021/09/28 02:59:46;;;;;;;20.38;13.50;;;;;;;15.18;100.00;93334.31;5075008;28;20048;-80
2021/09/28 03:02:13;;;;;;;21.77;14.05;;;;;;;15.07;100.00;93312.66;5072603;28;20048;-81
2021/09/28 03:04:41;;;;;;;19.67;13.75;;;;;;;15.00;100.00;93283.56;5072559;28;20122;-81
2021/09/28 03:07:08;;;;;;;19.08;14.30;;;;;;;15.01;100.00;93265.25;5072131;28;20060;-82
2021/09/28 03:09:34;;;;;;;22.23;13.77;;;;;;;15.18;100.00;93283.31;5072044;28;20055;-81
2021/09/28 03:12:01;;;;;;;20.95;14.27;;;;;;;15.18;100.00;93265.22;5072046;28;20061;-80
2021/09/28 03:14:28;;;;;;;20.02;13.02;;;;;;;15.27;100.00;93268.19;5071987;28;20433;-80
2021/09/28 03:16:55;;;;;;;20.52;14.30;;;;;;;15.31;100.00;93279.63;5072210;28;20151;-79
2021/09/28 03:19:24;;;;;;;19.55;13.95;;;;;;;15.35;100.00;93285.91;5071898;28;20056;-78
2021/09/28 03:21:53;;;;;;;20.38;12.70;;;;;;;15.39;100.00;93293.97;5085534;28;20044;-79
2021/09/28 03:24:19;;;;;;;20.13;13.50;;;;;;;15.39;100.00;93291.41;5092172;28;20058;-79
2021/09/28 03:26:46;;;;;;;18.65;13.65;;;;;;;15.43;100.00;93286.53;5092352;28;20048;-79
2021/09/28 03:29:13;;;;;;;21.30;14.07;;;;;;;15.44;100.00;93290.66;5091879;28;20048;-79
2021/09/28 03:31:40;;;;;;;18.00;12.35;;;;;;;15.45;100.00;93282.69;5092290;28;20052;-80
2021/09/28 03:34:07;;;;;;;20.10;12.15;;;;;;;15.33;100.00;93262.06;5092319;28;20417;-79
2021/09/28 03:36:34;;;;;;;16.63;11.88;;;;;;;15.38;100.00;93268.34;5091791;28;20567;-80
2021/09/28 03:39:02;;;;;;;16.58;13.05;;;;;;;15.48;100.00;93284.81;5091954;28;20055;-80
2021/09/28 03:41:29;;;;;;;15.93;12.40;;;;;;;15.53;100.00;93297.03;5092363;28;20044;-80
2021/09/28 03:43:56;;;;;;;16.45;12.73;;;;;;;15.41;100.00;93291.94;5092072;28;20048;-80
2021/09/28 03:46:23;;;;;;;17.80;13.52;;;;;;;14.59;100.00;93287.03;5091792;28;20525;-80
2021/09/28 03:48:50;;;;;;;21.20;16.48;;;;;;;14.18;100.00;93309.53;5091787;28;20138;-80
2021/09/28 03:51:17;;;;;;;23.55;18.58;;;;;;;13.76;100.00;93290.66;5092316;28;20451;-80
2021/09/28 03:53:43;;;;;;;24.45;19.52;;;;;;;14.00;100.00;93306.91;5092316;28;20067;-80
2021/09/28 03:56:12;;;;;;;25.60;18.80;;;;;;;14.02;100.00;93294.53;5091554;28;20048;-80
2021/09/28 03:58:39;;;;;;;25.77;20.02;;;;;;;14.24;100.00;93317.16;5083687;28;20060;-80
2021/09/28 04:01:05;;;;;;;27.27;20.27;;;;;;;14.35;100.00;93300.03;5071991;28;20467;-80
2021/09/28 04:03:32;;;;;;;23.67;17.85;;;;;;;14.58;100.00;93308.72;5090671;28;20052;-80
2021/09/28 04:05:59;;;;;;;22.90;16.98;;;;;;;14.47;100.00;93299.19;5091613;28;20044;-80
2021/09/28 04:08:26;;;;;;;22.15;16.35;;;;;;;14.55;100.00;93294.44;5091190;28;20488;-80
2021/09/28 04:10:53;;;;;;;21.67;16.00;;;;;;;14.63;100.00;93300.28;5091204;28;20056;-81
2021/09/28 04:13:21;;;;;;;22.40;17.27;;;;;;;14.62;100.00;93296.91;5091443;28;20047;-80
2021/09/28 04:15:48;;;;;;;21.88;15.52;;;;;;;14.75;100.00;93297.66;5091141;28;20051;-80
2021/09/28 04:18:14;;;;;;;20.27;14.75;;;;;;;14.89;100.00;93308.47;5091497;28;20413;-80
2021/09/28 04:20:43;;;;;;;21.73;14.63;;;;;;;14.99;100.00;93306.06;5086926;28;20610;-80
2021/09/28 04:23:11;;;;;;;19.58;16.35;;;;;;;14.75;100.00;93256.28;5070957;28;20490;-80
2021/09/28 04:25:38;;;;;;;22.15;16.55;;;;;;;15.10;100.00;93297.44;5071000;28;20049;-80
2021/09/28 04:28:05;;;;;;;20.80;18.40;;;;;;;15.12;100.00;93293.81;5069883;28;20048;-80
2021/09/28 04:30:34;;;;;;;22.30;18.52;;;;;;;15.03;100.00;93286.47;5075849;28;20048;-80
2021/09/28 04:33:01;;;;;;;21.38;17.23;;;;;;;15.09;100.00;93289.94;5081942;28;20090;-80
2021/09/28 04:35:28;;;;;;;19.52;15.98;;;;;;;15.09;100.00;93284.75;5076414;28;21182;-80
2021/09/28 04:37:55;;;;;;;21.02;16.73;;;;;;;15.20;100.00;93296.81;5070457;28;20055;-80
2021/09/28 04:40:22;;;;;;;20.35;17.67;;;;;;;15.08;100.00;93270.22;5070501;28;20056;-80
2021/09/28 04:42:48;;;;;;;22.58;19.20;;;;;;;15.23;100.00;93282.63;5070481;28;20500;-80
2021/09/28 04:45:15;;;;;;;22.23;19.83;;;;;;;15.11;100.00;93264.59;5070368;28;20051;-80
2021/09/28 04:47:44;;;;;;;24.55;20.02;;;;;;;15.38;100.00;93294.22;5070564;28;20066;-79
2021/09/28 04:50:11;;;;;;;25.55;20.55;;;;;;;15.40;100.00;93298.13;5070482;28;20379;-79
2021/09/28 04:52:38;;;;;;;22.73;20.25;;;;;;;15.45;100.00;93295.63;5070282;28;20441;-80
2021/09/28 04:55:05;;;;;;;24.45;20.27;;;;;;;15.39;100.00;93293.97;5070032;28;20048;-80
2021/09/28 04:57:32;;;;;;;25.92;20.63;;;;;;;15.34;100.00;93288.72;5070412;28;20052;-80
2021/09/28 04:59:59;;;;;;;23.77;20.20;;;;;;;15.34;100.00;93293.91;5070280;28;20044;-80
2021/09/28 05:02:26;;;;;;;24.55;20.75;;;;;;;15.18;100.00;93295.50;5069834;28;20595;-80
2021/09/28 05:04:54;;;;;;;25.77;22.80;;;;;;;15.12;100.00;93286.06;5080326;28;20044;-80
2021/09/28 05:07:21;;;;;;;27.23;21.75;;;;;;;15.25;100.00;93305.66;5088381;28;20052;-79
2021/09/28 05:09:47;;;;;;;26.00;22.88;;;;;;;15.17;100.00;93289.53;5089058;28;20496;-78
2021/09/28 05:12:14;;;;;;;24.73;21.70;;;;;;;15.29;100.00;93299.00;5090389;28;20051;-78
2021/09/28 05:14:41;;;;;;;25.30;21.75;;;;;;;15.33;100.00;93310.47;5090267;28;20052;-78
2021/09/28 05:17:09;;;;;;;23.60;21.08;;;;;;;15.33;100.00;93305.28;5079061;28;20082;-79
2021/09/28 05:19:36;;;;;;;27.75;24.15;;;;;;;15.25;100.00;93301.28;5078168;28;20070;-79
2021/09/28 05:24:49;;;;;;;33.78;26.45;;;;;;;14.85;100.00;93304.81;5070208;28;20123;-79
2021/09/28 05:27:16;;;;;;;32.45;24.75;;;;;;;14.91;100.00;93311.63;5070158;28;20056;-79
2021/09/28 05:29:43;;;;;;;35.20;27.35;;;;;;;14.86;100.00;93312.31;5069580;28;20048;-79
2021/09/28 05:32:10;;;;;;;38.92;29.27;;;;;;;14.91;100.00;93307.22;5069716;28;20057;-79
2021/09/28 05:34:37;;;;;;;37.13;27.92;;;;;;;14.99;100.00;93313.81;5069402;28;20052;-79
2021/09/28 05:37:06;;;;;;;35.17;26.40;;;;;;;14.82;100.00;93303.47;5069321;28;20049;-79
2021/09/28 05:39:33;;;;;;;37.60;26.65;;;;;;;14.87;100.00;93306.16;5069645;28;20059;-79
2021/09/28 05:42:00;;;;;;;38.75;26.52;;;;;;;15.00;100.00;93304.25;5069401;28;20489;-79
2021/09/28 05:44:26;;;;;;;33.70;27.58;;;;;;;15.13;100.00;93303.19;5069309;28;20044;-78
2021/09/28 05:46:53;;;;;;;37.80;27.77;;;;;;;15.36;100.00;93317.75;5069556;28;20049;-78
2021/09/28 05:49:20;;;;;;;39.30;28.50;;;;;;;15.31;100.00;93308.09;5069539;28;20047;-79
2021/09/28 05:51:51;;;;;;;35.72;25.75;;;;;;;15.49;100.00;93327.00;5055553;28;20040;-78
2021/09/28 05:54:20;;;;;;;35.25;27.13;;;;;;;15.63;100.00;93330.81;5077407;28;20559;-78
2021/09/28 05:56:48;;;;;;;36.92;27.95;;;;;;;15.47;100.00;93331.63;5069672;28;20076;-79
2021/09/28 05:59:15;;;;;;;35.72;24.20;;;;;;;15.33;100.00;93320.81;5068992;28;20055;-78
2021/09/28 06:01:42;;;;;;;38.22;24.55;;;;;;;15.28;100.00;93337.03;5069236;28;20045;-79
2021/09/28 06:04:09;;;;;;;32.78;25.23;;;;;;;15.46;100.00;93336.00;5069425;28;20047;-78
2021/09/28 06:06:36;;;;;;;34.35;24.95;;;;;;;15.60;100.00;93340.88;5069214;28;20065;-78
2021/09/28 06:09:04;;;;;;;37.17;28.38;;;;;;;15.79;100.00;93341.41;5069487;28;20167;-78
2021/09/28 06:11:32;;;;;;;39.92;32.17;;;;;;;15.81;100.00;93347.13;5069185;28;20071;-78
2021/09/28 06:13:59;;;;;;;34.72;29.73;;;;;;;15.66;100.00;93329.56;5069225;28;20094;-78
2021/09/28 06:16:26;;;;;;;34.35;24.52;;;;;;;15.81;100.00;93349.69;5069457;28;20048;-78
2021/09/28 06:18:53;;;;;;;35.88;25.65;;;;;;;15.94;100.00;93355.59;5069470;28;20079;-78
2021/09/28 06:21:20;;;;;;;34.40;25.55;;;;;;;15.77;100.00;93359.75;5071484;28;20045;-79
2021/09/28 06:23:46;;;;;;;29.58;22.27;;;;;;;15.72;100.00;93346.75;5073363;28;20044;-79
2021/09/28 06:26:13;;;;;;;32.50;24.67;;;;;;;15.65;100.00;93358.28;5073263;28;20090;-78
2021/09/28 06:28:41;;;;;;;32.67;25.00;;;;;;;15.23;100.00;93335.16;5072968;28;20449;-78
2021/09/28 06:31:08;;;;;;;126.05;98.00;;;;;;;15.44;100.00;93374.31;5073337;28;20056;-78
2021/09/28 06:33:35;;;;;;;45.78;30.98;;;;;;;15.48;100.00;93366.84;5072901;28;20056;-78
2021/09/28 06:36:02;;;;;;;37.03;26.08;;;;;;;15.40;100.00;93372.41;5073376;28;20044;-78
2021/09/28 06:38:28;;;;;;;33.05;25.23;;;;;;;15.35;100.00;93375.69;5073191;28;20094;-78
2021/09/28 06:40:55;;;;;;;34.35;26.27;;;;;;;15.35;100.00;93357.59;5072550;28;20048;-77
2021/09/28 06:43:22;;;;;;;33.35;26.25;;;;;;;15.56;100.00;93366.44;5072761;28;20417;-77
2021/09/28 06:45:50;;;;;;;35.97;26.73;;;;;;;15.80;100.00;93376.63;5072408;28;20052;-78
2021/09/28 06:48:18;;;;;;;34.65;26.90;;;;;;;15.86;100.00;93369.69;5072340;28;20056;-78
2021/09/28 06:50:45;;;;;;;31.67;25.05;;;;;;;16.01;100.00;93372.53;5072980;28;20056;-78
2021/09/28 06:53:12;;;;;;;36.08;26.73;;;;;;;16.06;100.00;93355.50;5073065;28;20052;-78
2021/09/28 06:55:39;;;;;;;38.33;26.38;;;;;;;16.21;100.00;93362.66;5072645;28;20044;-78
2021/09/28 06:58:06;;;;;;;38.92;26.23;;;;;;;16.37;100.00;93361.81;5072507;28;20053;-78
2021/09/28 07:00:36;;;;;;;28.35;23.33;;;;;;;16.49;100.00;93364.31;5072343;28;20390;-77
2021/09/28 07:03:05;;;;;;;30.05;23.05;;;;;;;16.48;100.00;93334.19;5072705;28;20105;-78
2021/09/28 07:05:32;;;;;;;29.23;21.02;;;;;;;16.90;100.00;93365.75;5072185;28;20045;-78
2021/09/28 07:07:59;;;;;;;32.20;22.48;;;;;;;16.98;100.00;93375.66;5072558;28;20059;-77
2021/09/28 07:10:26;;;;;;;30.77;21.27;;;;;;;16.98;100.00;93349.72;5071918;28;20051;-78
2021/09/28 07:12:53;;;;;;;33.35;20.80;;;;;;;17.07;100.00;93342.31;5072303;28;20044;-77
2021/09/28 07:15:20;;;;;;;29.55;19.98;;;;;;;17.38;100.00;93371.13;5072012;28;20052;-77
2021/09/28 07:17:47;;;;;;;32.45;20.20;;;;;;;17.45;100.00;93358.69;5071984;28;20044;-77
2021/09/28 07:20:15;;;;;;;33.55;20.35;;;;;;;17.62;100.00;93368.97;5072241;28;20055;-77
2021/09/28 07:22:42;;;;;;;29.42;20.40;;;;;;;17.68;100.00;93369.75;5072053;28;20049;-77
2021/09/28 07:25:10;;;;;;;27.83;19.73;;;;;;;17.86;100.00;93373.78;5072117;28;20074;-78
2021/09/28 07:27:36;;;;;;;33.05;22.40;;;;;;;18.01;100.00;93375.69;5071952;28;20409;-77
2021/09/28 07:30:04;;;;;;;32.78;22.00;;;;;;;17.93;100.00;93359.78;5071548;28;20053;-77
2021/09/28 07:32:31;;;;;;;38.88;23.13;;;;;;;17.63;100.00;93373.13;5070868;28;20051;-78
2021/09/28 07:34:58;;;;;;;37.40;23.13;;;;;;;17.78;100.00;93376.88;5071907;28;20069;-77
2021/09/28 07:37:28;;;;;;;35.72;22.48;;;;;;;17.99;100.00;93367.38;5072023;28;20048;-77
2021/09/28 07:39:55;;;;;;;42.35;24.10;;;;;;;18.18;100.00;93353.97;5071919;28;20044;-77
2021/09/28 07:42:22;;;;;;;33.42;22.35;;;;;;;18.49;100.00;93363.69;5067651;28;20606;-78
2021/09/28 07:44:49;;;;;;;29.45;19.83;;;;;;;18.79;100.00;93372.66;5070458;28;20048;-77
2021/09/28 07:47:16;;;;;;;26.10;18.40;;;;;;;19.02;100.00;93384.38;5071386;28;20049;-77
2021/09/28 07:49:43;;;;;;;26.95;18.55;;;;;;;19.20;100.00;93380.53;5071480;28;20101;-77
2021/09/28 07:52:10;;;;;;;26.42;17.63;;;;;;;19.45;100.00;93378.97;5071498;28;20051;-77
2021/09/28 07:54:39;;;;;;;27.00;16.65;;;;;;;19.77;100.00;93377.94;5071358;28;20489;-77
2021/09/28 07:57:06;;;;;;;23.15;16.13;;;;;;;20.05;100.00;93385.47;5071394;28;20132;-78
2021/09/28 07:59:33;;;;;;;25.15;16.33;;;;;;;20.12;96.73;93385.19;5071081;28;20051;-78
2021/09/28 08:01:59;;;;;;;26.52;15.20;;;;;;;20.35;95.58;93380.41;5071370;28;20041;-78
2021/09/28 08:04:26;;;;;;;24.92;14.45;;;;;;;20.42;97.20;93376.47;5071149;28;20059;-78
2021/09/28 08:06:55;;;;;;;23.38;14.55;;;;;;;20.74;95.54;93376.34;5071268;28;20079;-77
2021/09/28 08:09:21;;;;;;;26.92;16.00;;;;;;;20.05;95.18;93384.69;5070935;28;20473;-78
2021/09/28 08:11:52;;;;;;;26.42;17.70;;;;;;;19.73;98.32;93383.94;5071158;28;20056;-78
2021/09/28 08:14:19;;;;;;;27.00;17.35;;;;;;;19.93;98.89;93366.69;5071150;28;20051;-78
2021/09/28 08:16:45;;;;;;;34.55;19.50;;;;;;;20.02;96.48;93386.78;5071012;28;20413;-78
2021/09/28 08:19:12;;;;;;;27.58;18.20;;;;;;;20.05;98.65;93385.47;5071079;28;20057;-78
2021/09/28 08:21:39;;;;;;;27.58;16.80;;;;;;;19.88;98.78;93385.72;5070771;28;20045;-78
2021/09/28 08:24:08;;;;;;;25.42;15.20;;;;;;;20.18;98.11;93383.34;5070585;28;20059;-79
2021/09/28 08:29:22;;;;;;;19.15;14.05;;;;;;;19.71;99.93;93381.59;5070859;28;20151;-77
2021/09/28 08:31:49;;;;;;;19.25;14.48;;;;;;;19.78;100.00;93381.31;5070503;28;20052;-77
2021/09/28 08:34:19;;;;;;;20.10;12.95;;;;;;;20.00;100.00;93377.66;5070826;28;20394;-77
2021/09/28 08:36:47;;;;;;;16.52;12.43;;;;;;;19.83;99.43;93386.53;5070662;28;20432;-78
2021/09/28 08:39:16;;;;;;;16.75;12.13;;;;;;;19.23;100.00;93366.22;5070488;28;20076;-78
2021/09/28 08:41:44;;;;;;;15.80;12.27;;;;;;;19.33;100.00;93360.22;5070601;28;20044;-77
2021/09/28 08:44:11;;;;;;;19.48;12.93;;;;;;;19.47;100.00;93379.53;5070147;28;20047;-77
2021/09/28 08:46:40;;;;;;;19.13;13.30;;;;;;;19.08;100.00;93385.22;5070649;28;20094;-78
2021/09/28 08:49:07;;;;;;;18.42;13.82;;;;;;;18.76;100.00;93392.16;5070262;28;20059;-78
2021/09/28 08:51:34;;;;;;;17.30;13.70;;;;;;;19.19;100.00;93386.81;5070530;28;20059;-77
2021/09/28 08:54:01;;;;;;;18.10;13.82;;;;;;;19.41;100.00;93385.78;5070480;28;20044;-77
2021/09/28 08:56:28;;;;;;;17.25;13.52;;;;;;;19.58;100.00;93376.91;5070361;28;20052;-77
2021/09/28 08:58:59;;;;;;;14.77;12.77;;;;;;;19.83;100.00;93389.13;5070101;28;20148;-78
2021/09/28 09:01:28;;;;;;;19.25;13.95;;;;;;;19.32;100.00;93377.69;5069821;28;20052;-78
2021/09/28 09:03:57;;;;;;;15.48;12.60;;;;;;;19.34;100.00;93380.03;5070411;28;20052;-78
2021/09/28 09:06:34;;;;;;;15.98;12.25;;;;;;;19.79;100.00;93377.66;5069502;28;20053;-77
2021/09/28 09:09:03;;;;;;;17.92;13.02;;;;;;;19.58;98.96;93376.91;5069865;28;20131;-78
2021/09/28 09:11:35;;;;;;;16.42;12.40;;;;;;;19.41;100.00;93367.53;5071766;28;20106;-77
2021/09/28 09:14:12;;;;;;;18.10;12.20;;;;;;;19.69;100.00;93382.88;5090120;28;20052;-77
2021/09/28 09:16:41;;;;;;;21.70;12.75;;;;;;;19.80;100.00;93365.44;5090433;28;20050;-77
2021/09/28 09:19:16;;;;;;;15.25;12.02;;;;;;;19.65;99.18;93363.59;5090226;28;20048;-77
2021/09/28 09:21:48;;;;;;;24.15;13.70;;;;;;;19.54;100.00;93374.06;5090214;28;20118;-77
2021/09/28 09:24:44;;;;;;;17.15;11.77;;;;;;;19.67;100.00;93372.72;5090041;28;20048;-78
2021/09/28 09:27:13;;;;;;;17.80;12.77;;;;;;;19.55;100.00;93361.78;5087514;28;20044;-77
2021/09/28 09:29:41;;;;;;;16.65;11.73;;;;;;;20.16;99.18;93373.19;5089929;28;20047;-78
2021/09/28 09:32:10;;;;;;;15.43;12.00;;;;;;;19.90;98.21;93381.03;5089490;28;20056;-78
2021/09/28 09:34:38;;;;;;;14.25;11.98;;;;;;;20.28;96.50;93373.66;5090044;28;20048;-78
2021/09/28 09:37:08;;;;;;;17.65;12.95;;;;;;;19.81;97.53;93375.56;5089512;28;20044;-78
2021/09/28 09:39:46;;;;;;;15.77;12.57;;;;;;;19.67;99.95;93377.16;5089557;28;20048;-79
2021/09/28 09:42:13;;;;;;;17.40;13.77;;;;;;;20.29;98.88;93375.22;5089384;28;20052;-79
2021/09/28 09:44:42;;;;;;;19.88;14.05;;;;;;;20.60;96.79;93373.56;5089930;28;20075;-79
2021/09/28 09:47:25;;;;;;;18.08;12.73;;;;;;;21.06;95.19;93373.31;5074140;28;20052;-79
2021/09/28 09:50:12;;;;;;;17.42;12.20;;;;;;;21.07;94.03;93372.25;5067592;28;20061;-79
2021/09/28 09:53:10;;;;;;;14.63;12.50;;;;;;;20.94;93.92;93373.66;5069444;28;20060;-79
2021/09/28 09:55:43;;;;;;;19.13;13.35;;;;;;;21.13;95.45;93373.03;5069113;28;20053;-79
2021/09/28 09:58:10;;;;;;;19.83;15.57;;;;;;;21.49;94.20;93369.38;5069610;28;20072;-79
2021/09/28 10:00:40;;;;;;;23.83;15.15;;;;;;;21.58;93.69;93372.94;5069183;28;20063;-79
2021/09/28 10:03:08;;;;;;;18.45;13.98;;;;;;;21.76;92.38;93378.59;5069062;28;20080;-79
2021/09/28 10:05:37;;;;;;;19.83;14.13;;;;;;;21.85;90.56;93352.63;5069107;28;20079;-79
2021/09/28 10:08:08;;;;;;;17.55;14.68;;;;;;;22.08;90.32;93358.91;5069184;28;20063;-79
2021/09/28 10:10:37;;;;;;;23.58;13.60;;;;;;;22.27;89.49;93369.44;5069276;28;20141;-79
2021/09/28 10:13:05;;;;;;;22.20;14.68;;;;;;;22.50;87.46;93368.91;5069216;28;20049;-79
2021/09/28 10:15:32;;;;;;;21.52;13.20;;;;;;;22.51;87.58;93368.66;5068943;28;20051;-79
2021/09/28 10:17:59;;;;;;;15.93;12.60;;;;;;;22.41;86.68;93380.00;5069110;28;20051;-79
2021/09/28 10:20:30;;;;;;;19.30;13.43;;;;;;;22.57;87.21;93368.63;5068911;28;20143;-80
2021/09/28 10:23:00;;;;;;;20.65;12.82;;;;;;;22.59;85.98;93356.78;5069189;28;20063;-79
2021/09/28 10:25:41;;;;;;;17.65;12.40;;;;;;;22.50;85.58;93361.06;5069080;28;20048;-79
2021/09/28 10:28:41;;;;;;;17.20;11.15;;;;;;;22.36;85.93;93376.66;5068714;28;20121;-79
2021/09/28 10:31:14;;;;;;;20.45;12.55;;;;;;;22.41;86.61;93356.44;5068698;28;20140;-80
2021/09/28 10:33:52;;;;;;;16.05;10.82;;;;;;;22.16;87.22;93365.38;5068673;28;20044;-80
2021/09/28 10:36:23;;;;;;;15.20;11.48;;;;;;;21.91;86.53;93359.34;5068993;28;20071;-79
2021/09/28 10:39:01;;;;;;;16.80;11.30;;;;;;;21.55;89.09;93357.81;5068644;28;20055;-79
2021/09/28 10:41:50;;;;;;;13.93;10.77;;;;;;;21.34;88.79;93354.59;5069064;28;20048;-79
2021/09/28 10:44:47;;;;;;;13.40;10.60;;;;;;;21.94;88.44;93356.16;5068754;28;20053;-79
2021/09/28 10:47:47;;;;;;;14.88;10.65;;;;;;;22.21;87.13;93354.09;5068962;28;20151;-79
2021/09/28 10:50:23;;;;;;;15.73;10.18;;;;;;;21.76;87.20;93355.81;5063995;28;20110;-79
2021/09/28 10:52:50;;;;;;;;;;;;;;;21.15;89.58;93351.88;5073623;28;20106;-79
2021/09/28 10:55:53;;;;;;;13.70;10.27;;;;;;;21.11;89.90;93351.63;5087134;28;19923;-79
2021/09/28 10:58:22;;;;;;;13.90;11.30;;;;;;;20.99;90.48;93354.56;5088902;28;20062;-79
2021/09/28 11:01:14;;;;;;;15.57;11.30;;;;;;;20.85;92.27;93323.06;5088827;28;20130;-79
2021/09/28 11:04:05;;;;;;;16.40;10.60;;;;;;;21.44;89.77;93345.88;5089000;28;20052;-79
2021/09/28 11:07:03;;;;;;;14.15;10.10;;;;;;;21.00;89.44;93324.00;5088706;28;20135;-79
2021/09/28 11:09:49;;;;;;;13.77;9.65;;;;;;;20.69;91.70;93343.25;5092389;28;20047;-80
2021/09/28 11:12:19;;;;;;;12.20;9.32;;;;;;;21.08;91.36;93349.56;5092572;28;20042;-80
2021/09/28 11:14:47;;;;;;;10.82;9.13;;;;;;;21.19;90.58;93347.63;5092158;28;20557;-80
2021/09/28 11:17:16;;;;;;;13.07;9.10;;;;;;;20.64;93.42;93351.09;5091455;28;20101;-80
2021/09/28 11:19:44;;;;;;;13.23;10.00;;;;;;;20.39;97.07;93335.28;5092007;28;20044;-81
2021/09/28 11:22:19;;;;;;;13.65;9.48;;;;;;;19.82;100.00;93319.81;5092378;28;20055;-81
2021/09/28 11:24:46;;;;;;;12.73;10.03;;;;;;;19.86;100.00;93330.50;5091604;28;20131;-81